createdAt,value
2022-10-19T00:00:33.810Z,100292.91
2022-10-19T00:03:05.489Z,100296.22
2022-10-19T00:05:40.178Z,100296.41
2022-10-19T00:08:11.864Z,100306.53
2022-10-19T00:10:43.789Z,100316.78
2022-10-19T00:13:18.163Z,100304.34
2022-10-19T00:15:51.200Z,100308.53
2022-10-19T00:18:22.860Z,100299.56
2022-10-19T00:21:03.643Z,100290.59
2022-10-19T00:23:35.822Z,100296.72
2022-10-19T00:26:07.758Z,100302.88
2022-10-19T00:28:39.797Z,100297.06
2022-10-19T00:31:17.743Z,100304.88
2022-10-19T00:33:49.570Z,100297.56
2022-10-19T00:36:24.205Z,100298.41
2022-10-19T00:38:55.851Z,100295.91
2022-10-19T00:41:30.915Z,100295.91
2022-10-19T00:44:13.602Z,100299.22
2022-10-19T00:46:50.636Z,100291.25
2022-10-19T00:49:26.518Z,100287.63
2022-10-19T00:52:19.555Z,100291.94
2022-10-19T00:54:53.816Z,100284.97
2022-10-19T00:57:28.850Z,100285.78
2022-10-19T01:00:03.007Z,100288.59
2022-10-19T01:02:35.767Z,100286.31
2022-10-19T01:05:08.506Z,100282.97
2022-10-19T01:07:40.284Z,100279.78
2022-10-19T01:10:13.355Z,100275.66
2022-10-19T01:12:54.206Z,100267.84
2022-10-19T01:15:41.679Z,100274.34
2022-10-19T01:18:22.975Z,100268.19
2022-10-19T01:21:03.838Z,100270.34
2022-10-19T01:23:57.006Z,100265.22
2022-10-19T01:26:55.398Z,100260.22
2022-10-19T01:29:57.824Z,100259.06
2022-10-19T01:32:48.075Z,100251.75
2022-10-19T01:35:40.966Z,100256.66
2022-10-19T01:38:25.134Z,100254.31
2022-10-19T01:41:24.321Z,100257.94
2022-10-19T01:44:01.849Z,100265.38
2022-10-19T01:46:41.794Z,100256.59
2022-10-19T01:49:33.460Z,100241.69
2022-10-19T01:52:08.918Z,100250.78
2022-10-19T01:54:44.928Z,100253.44
2022-10-19T01:57:21.783Z,100261.25
2022-10-19T01:59:56.745Z,100254.28
2022-10-19T02:02:30.848Z,100258.06
2022-10-19T02:05:05.697Z,100257.22
2022-10-19T02:07:40.453Z,100261.19
2022-10-19T02:10:12.300Z,100256.53
2022-10-19T02:12:44.670Z,100249.41
2022-10-19T02:15:21.370Z,100259.03
2022-10-19T02:17:57.507Z,100250.09
2022-10-19T02:20:29.464Z,100251.09
2022-10-19T02:23:07.614Z,100249.47
2022-10-19T02:25:39.491Z,100248.81
2022-10-19T02:28:11.683Z,100252.47
2022-10-19T02:30:43.478Z,100250.00
2022-10-19T02:33:15.886Z,100245.03
2022-10-19T02:35:48.244Z,100235.78
2022-10-19T02:38:24.961Z,100244.22
2022-10-19T02:41:15.644Z,100241.56
2022-10-19T02:43:59.445Z,100244.06
2022-10-19T02:49:18.133Z,100235.97
2022-10-19T02:52:07.682Z,100239.97
2022-10-19T02:54:41.187Z,100251.06
2022-10-19T02:57:25.005Z,100237.16
2022-10-19T02:59:56.624Z,100239.47
2022-10-19T03:02:28.297Z,100241.72
2022-10-19T03:04:59.924Z,100255.50
2022-10-19T03:07:34.600Z,100253.00
2022-10-19T03:10:06.953Z,100244.22
2022-10-19T03:12:38.627Z,100248.22
2022-10-19T03:15:15.359Z,100238.16
2022-10-19T03:17:46.996Z,100240.94
2022-10-19T03:20:18.662Z,100247.91
2022-10-19T03:22:50.650Z,100245.44
2022-10-19T03:25:25.004Z,100240.94
2022-10-19T03:27:58.178Z,100233.13
2022-10-19T03:30:29.909Z,100230.97
2022-10-19T03:33:01.542Z,100237.25
2022-10-19T03:35:35.216Z,100230.31
2022-10-19T03:38:06.836Z,100233.28
2022-10-19T03:40:40.482Z,100237.06
2022-10-19T03:43:12.207Z,100236.41
2022-10-19T03:45:46.736Z,100237.75
2022-10-19T03:48:18.356Z,100239.72
2022-10-19T03:51:01.503Z,100254.81
2022-10-19T03:53:34.237Z,100253.78
2022-10-19T03:56:19.545Z,100264.53
2022-10-19T03:58:53.030Z,100256.53
2022-10-19T04:01:33.568Z,100252.56
2022-10-19T04:04:09.670Z,100256.53
2022-10-19T04:06:44.107Z,100251.38
2022-10-19T04:09:19.362Z,100251.84
2022-10-19T04:11:51.171Z,100251.03
2022-10-19T04:14:32.164Z,100249.66
2022-10-19T04:17:04.926Z,100247.28
2022-10-19T04:19:36.632Z,100249.28
2022-10-19T04:22:08.279Z,100252.91
2022-10-19T04:24:39.919Z,100246.78
2022-10-19T04:27:11.752Z,100254.75
2022-10-19T04:29:43.520Z,100252.25
2022-10-19T04:32:18.489Z,100250.75
2022-10-19T04:34:50.102Z,100251.06
2022-10-19T04:37:21.819Z,100256.69
2022-10-19T04:39:53.465Z,100255.16
2022-10-19T04:42:25.106Z,100253.97
2022-10-19T04:44:56.736Z,100254.28
2022-10-19T04:47:29.998Z,100257.09
2022-10-19T04:50:01.744Z,100253.75
2022-10-19T04:52:35.294Z,100247.34
2022-10-19T04:55:07.336Z,100244.50
2022-10-19T04:57:39.016Z,100247.16
2022-10-19T05:00:11.226Z,100244.34
2022-10-19T05:02:44.968Z,100240.88
2022-10-19T05:05:16.633Z,100244.50
2022-10-19T05:07:49.310Z,100242.19
2022-10-19T05:10:20.964Z,100256.25
2022-10-19T05:12:53.128Z,100259.22
2022-10-19T05:15:24.802Z,100261.84
2022-10-19T05:17:57.384Z,100262.03
2022-10-19T05:20:29.076Z,100260.03
2022-10-19T05:23:04.757Z,100271.31
2022-10-19T05:25:39.071Z,100263.53
2022-10-19T05:28:10.830Z,100264.34
2022-10-19T05:30:46.660Z,100277.59
2022-10-19T05:33:20.577Z,100266.31
2022-10-19T05:35:52.204Z,100265.34
2022-10-19T05:38:25.091Z,100270.34
2022-10-19T05:40:56.734Z,100274.47
2022-10-19T05:43:28.380Z,100277.81
2022-10-19T05:46:08.149Z,100280.31
2022-10-19T05:48:40.805Z,100281.94
2022-10-19T05:51:15.339Z,100289.44
2022-10-19T05:53:47.200Z,100289.28
2022-10-19T05:56:22.205Z,100301.53
2022-10-19T05:58:56.101Z,100297.91
2022-10-19T06:01:29.499Z,100297.91
2022-10-19T06:04:03.380Z,100295.25
2022-10-19T06:06:35.154Z,100298.06
2022-10-19T06:09:06.999Z,100305.84
2022-10-19T06:11:41.445Z,100305.84
2022-10-19T06:14:16.548Z,100309.19
2022-10-19T06:16:48.701Z,100316.44
2022-10-19T06:19:20.433Z,100317.44
2022-10-19T06:21:52.167Z,100321.25
2022-10-19T06:24:24.159Z,100323.06
2022-10-19T06:26:55.798Z,100328.81
2022-10-19T06:29:27.552Z,100333.81
2022-10-19T06:32:00.422Z,100336.66
2022-10-19T06:34:32.165Z,100333.19
2022-10-19T06:37:03.897Z,100334.84
2022-10-19T06:39:36.413Z,100334.88
2022-10-19T06:42:09.607Z,100342.13
2022-10-19T06:44:41.340Z,100341.50
2022-10-19T06:47:13.126Z,100346.94
2022-10-19T06:49:44.909Z,100339.66
2022-10-19T06:52:16.538Z,100345.31
2022-10-19T06:54:48.330Z,100341.56
2022-10-19T06:57:20.027Z,100355.22
2022-10-19T06:59:53.018Z,100346.91
2022-10-19T07:02:25.786Z,100360.34
2022-10-19T07:04:57.476Z,100361.44
2022-10-19T07:07:29.162Z,100359.16
2022-10-19T07:10:02.695Z,100349.66
2022-10-19T07:12:34.548Z,100344.13
2022-10-19T07:15:06.889Z,100351.78
2022-10-19T07:17:38.624Z,100343.28
2022-10-19T07:20:10.961Z,100351.53
2022-10-19T07:22:42.673Z,100359.44
2022-10-19T07:25:14.795Z,100341.06
2022-10-19T07:27:46.546Z,100340.06
2022-10-19T07:30:23.672Z,100345.19
2022-10-19T07:32:55.422Z,100344.44
2022-10-19T07:35:27.565Z,100350.03
2022-10-19T07:37:59.411Z,100359.09
2022-10-19T07:40:31.255Z,100366.81
2022-10-19T07:43:03.382Z,100360.44
2022-10-19T07:45:35.358Z,100364.94
2022-10-19T07:48:07.264Z,100370.91
2022-10-19T07:50:39.377Z,100370.16
2022-10-19T07:53:11.222Z,100371.19
2022-10-19T07:55:43.202Z,100372.47
2022-10-19T07:58:14.925Z,100372.69
2022-10-19T08:00:47.326Z,100374.69
2022-10-19T08:03:57.509Z,100375.69
2022-10-19T08:06:13.832Z,100380.16
2022-10-19T08:08:46.793Z,100379.16
2022-10-19T08:11:27.491Z,100381.75
2022-10-19T08:13:59.382Z,100382.50
2022-10-19T08:16:33.249Z,100379.59
2022-10-19T08:19:08.180Z,100379.59
2022-10-19T08:21:42.553Z,100372.81
2022-10-19T08:24:16.403Z,100384.59
2022-10-19T08:26:51.235Z,100387.78
2022-10-19T08:29:23.820Z,100389.25
2022-10-19T08:31:57.642Z,100391.19
2022-10-19T08:34:29.331Z,100383.44
2022-10-19T08:37:10.089Z,100398.00
2022-10-19T08:39:52.160Z,100396.72
2022-10-19T08:42:33.826Z,100383.66
2022-10-19T08:45:27.209Z,100378.22
2022-10-19T08:48:30.353Z,100367.94
2022-10-19T08:51:03.225Z,100377.22
2022-10-19T08:53:38.140Z,100379.72
2022-10-19T08:56:51.461Z,100368.53
2022-10-19T08:59:50.255Z,100372.69
2022-10-19T09:02:32.200Z,100376.78
2022-10-19T09:05:13.456Z,100378.63
2022-10-19T09:07:47.421Z,100374.69
2022-10-19T09:10:38.883Z,100369.72
2022-10-19T09:13:36.497Z,100369.22
2022-10-19T09:16:20.188Z,100368.00
2022-10-19T09:21:47.910Z,100384.94
2022-10-19T09:24:29.975Z,100378.59
2022-10-19T09:27:03.130Z,100377.72
2022-10-19T09:29:43.692Z,100372.06
2022-10-19T09:32:20.979Z,100372.88
2022-10-19T09:35:07.375Z,100374.59
2022-10-19T09:37:44.870Z,100384.63
2022-10-19T09:40:20.205Z,100383.88
2022-10-19T09:42:57.308Z,100388.78
2022-10-19T09:45:54.301Z,100392.06
2022-10-19T09:48:33.409Z,100389.94
2022-10-19T09:51:17.847Z,100390.31
2022-10-19T09:53:54.817Z,100388.69
2022-10-19T09:56:28.034Z,100396.41
2022-10-19T09:59:00.151Z,100396.66
2022-10-19T10:01:41.733Z,100394.75
2022-10-19T10:04:17.925Z,100404.00
2022-10-19T10:06:50.495Z,100405.88
2022-10-19T10:09:27.342Z,100407.66
2022-10-19T10:12:02.515Z,100408.63
2022-10-19T10:14:36.740Z,100408.91
2022-10-19T10:17:34.827Z,100409.28
2022-10-19T10:20:17.679Z,100405.81
2022-10-19T10:23:01.671Z,100402.03
2022-10-19T10:25:36.298Z,100398.19
2022-10-19T10:28:32.486Z,100399.72
2022-10-19T10:31:08.871Z,100406.00
2022-10-19T10:33:45.687Z,100395.25
2022-10-19T10:36:18.337Z,100397.47
2022-10-19T10:38:55.653Z,100403.50
2022-10-19T10:41:31.628Z,100395.88
2022-10-19T10:44:08.591Z,100399.56
2022-10-19T10:46:51.697Z,100403.13
2022-10-19T10:49:37.398Z,100398.06
2022-10-19T10:52:15.641Z,100401.72
2022-10-19T10:55:09.054Z,100394.97
2022-10-19T10:57:50.861Z,100401.31
2022-10-19T11:00:24.187Z,100398.94
2022-10-19T11:03:17.664Z,100405.00
2022-10-19T11:05:57.141Z,100400.69
2022-10-19T11:09:03.728Z,100404.53
2022-10-19T11:11:43.426Z,100397.81
2022-10-19T11:14:37.946Z,100388.16
2022-10-19T11:17:20.019Z,100394.84
2022-10-19T11:19:52.042Z,100389.81
2022-10-19T11:22:41.782Z,100390.38
2022-10-19T11:25:30.249Z,100387.47
2022-10-19T11:28:26.935Z,100387.75
2022-10-19T11:31:34.147Z,100380.53
2022-10-19T11:34:30.636Z,100374.00
2022-10-19T11:37:14.612Z,100375.59
2022-10-19T11:40:22.109Z,100377.56
2022-10-19T11:43:07.023Z,100375.59
2022-10-19T11:46:05.024Z,100370.69
2022-10-19T11:48:55.070Z,100369.59
2022-10-19T11:51:47.052Z,100369.16
2022-10-19T11:54:44.204Z,100373.47
2022-10-19T11:57:26.208Z,100374.19
2022-10-19T12:00:15.166Z,100376.66
2022-10-19T12:03:27.969Z,100373.69
2022-10-19T12:06:23.012Z,100370.69
2022-10-19T12:09:20.990Z,100366.06
2022-10-19T12:12:20.835Z,100371.50
2022-10-19T12:15:03.292Z,100367.66
2022-10-19T12:17:38.248Z,100359.00
2022-10-19T12:20:24.643Z,100362.16
2022-10-19T12:22:59.368Z,100362.19
2022-10-19T12:25:31.095Z,100352.47
2022-10-19T12:28:10.361Z,100356.81
2022-10-19T12:30:42.115Z,100354.16
2022-10-19T12:33:26.515Z,100353.28
2022-10-19T12:36:25.472Z,100348.53
2022-10-19T12:39:02.602Z,100344.16
2022-10-19T12:41:44.863Z,100345.19
2022-10-19T12:44:32.525Z,100349.53
2022-10-19T12:47:11.841Z,100344.25
2022-10-19T12:49:44.811Z,100351.28
2022-10-19T12:52:40.613Z,100354.97
2022-10-19T12:55:28.047Z,100342.41
2022-10-19T12:58:03.095Z,100343.41
2022-10-19T13:00:37.656Z,100345.25
2022-10-19T13:03:20.816Z,100338.59
2022-10-19T13:06:06.130Z,100334.09
2022-10-19T13:08:53.004Z,100332.91
2022-10-19T13:11:25.359Z,100333.94
2022-10-19T13:14:06.396Z,100329.34
2022-10-19T13:16:38.072Z,100327.13
2022-10-19T13:19:12.469Z,100321.66
2022-10-19T13:21:48.920Z,100322.91
2022-10-19T13:24:23.547Z,100325.34
2022-10-19T13:27:04.195Z,100331.97
2022-10-19T13:29:38.766Z,100314.69
2022-10-19T13:32:38.120Z,100325.25
2022-10-19T13:35:28.764Z,100333.28
2022-10-19T13:38:16.470Z,100330.56
2022-10-19T13:40:51.254Z,100334.63
2022-10-19T13:43:27.346Z,100330.13
2022-10-19T13:46:10.628Z,100329.28
2022-10-19T13:49:08.511Z,100324.81
2022-10-19T13:52:07.909Z,100324.13
2022-10-19T13:55:17.148Z,100326.16
2022-10-19T13:58:14.294Z,100318.06
2022-10-19T14:00:48.903Z,100324.78
2022-10-19T14:03:39.027Z,100322.13
2022-10-19T14:06:31.711Z,100329.44
2022-10-19T14:09:18.808Z,100329.78
2022-10-19T14:11:54.094Z,100319.66
2022-10-19T14:14:28.274Z,100318.16
2022-10-19T14:17:04.415Z,100321.31
2022-10-19T14:19:49.027Z,100314.19
2022-10-19T14:22:27.157Z,100316.84
2022-10-19T14:25:20.778Z,100319.97
2022-10-19T14:28:06.048Z,100318.16
2022-10-19T14:30:37.989Z,100311.00
2022-10-19T14:33:14.905Z,100319.97
2022-10-19T14:35:50.177Z,100318.63
2022-10-19T14:38:43.433Z,100318.47
2022-10-19T14:41:27.165Z,100309.66
2022-10-19T14:44:00.584Z,100320.81
2022-10-19T14:46:34.187Z,100318.97
2022-10-19T14:49:11.473Z,100310.69
2022-10-19T14:51:49.511Z,100320.97
2022-10-19T14:54:36.138Z,100314.81
2022-10-19T14:57:39.671Z,100311.50
2022-10-19T15:00:18.722Z,100306.72
2022-10-19T15:03:07.098Z,100312.19
2022-10-19T15:05:46.369Z,100309.22
2022-10-19T15:08:34.011Z,100313.00
2022-10-19T15:11:07.777Z,100314.16
2022-10-19T15:13:43.061Z,100311.19
2022-10-19T15:16:43.270Z,100319.63
2022-10-19T15:19:25.058Z,100310.66
2022-10-19T15:22:26.868Z,100310.84
2022-10-19T15:25:23.563Z,100306.00
2022-10-19T15:27:57.740Z,100312.63
2022-10-19T15:30:32.548Z,100300.88
2022-10-19T15:33:04.476Z,100305.00
2022-10-19T15:35:39.719Z,100312.16
2022-10-19T15:38:14.896Z,100306.97
2022-10-19T15:40:48.287Z,100298.03
2022-10-19T15:43:35.086Z,100300.84
2022-10-19T15:46:20.506Z,100302.69
2022-10-19T15:48:57.599Z,100305.63
2022-10-19T15:51:32.087Z,100309.81
2022-10-19T15:54:06.408Z,100307.63
2022-10-19T15:56:39.952Z,100305.94
2022-10-19T15:59:18.122Z,100310.44
2022-10-19T16:01:52.608Z,100312.22
2022-10-19T16:04:26.935Z,100312.34
2022-10-19T16:06:58.807Z,100311.00
2022-10-19T16:09:30.688Z,100310.50
2022-10-19T16:12:02.476Z,100318.44
2022-10-19T16:14:36.610Z,100321.09
2022-10-19T16:17:13.359Z,100313.00
2022-10-19T16:19:46.135Z,100319.25
2022-10-19T16:22:18.043Z,100317.41
2022-10-19T16:24:49.795Z,100323.50
2022-10-19T16:27:21.585Z,100313.09
2022-10-19T16:29:54.743Z,100317.03
2022-10-19T16:32:26.426Z,100325.59
2022-10-19T16:34:59.780Z,100326.88
2022-10-19T16:37:31.749Z,100327.34
2022-10-19T16:40:05.351Z,100328.97
2022-10-19T16:42:37.636Z,100328.31
2022-10-19T16:45:10.171Z,100336.50
2022-10-19T16:47:41.858Z,100332.03
2022-10-19T16:50:13.915Z,100339.13
2022-10-19T16:52:45.937Z,100338.44
2022-10-19T16:55:18.220Z,100345.75
2022-10-19T16:57:53.467Z,100335.44
2022-10-19T17:00:27.962Z,100342.25
2022-10-19T17:02:59.642Z,100336.81
2022-10-19T17:05:31.367Z,100340.44
2022-10-19T17:08:05.194Z,100340.75
2022-10-19T17:10:36.965Z,100343.66
2022-10-19T17:13:08.734Z,100346.28
2022-10-19T17:15:43.267Z,100346.78
2022-10-19T17:18:15.510Z,100349.28
2022-10-19T17:20:47.270Z,100349.50
2022-10-19T17:23:19.109Z,100345.41
2022-10-19T17:25:51.080Z,100350.53
2022-10-19T17:28:25.480Z,100353.44
2022-10-19T17:31:07.987Z,100356.19
2022-10-19T17:33:40.851Z,100362.47
2022-10-19T17:36:33.867Z,100363.56
2022-10-19T17:39:08.696Z,100370.91
2022-10-19T17:41:40.196Z,100366.53
2022-10-19T17:44:12.792Z,100367.44
2022-10-19T17:46:45.093Z,100370.78
2022-10-19T17:49:17.342Z,100379.69
2022-10-19T17:51:49.293Z,100379.56
2022-10-19T17:54:21.083Z,100374.09
2022-10-19T17:56:52.776Z,100366.81
2022-10-19T17:59:34.922Z,100367.66
2022-10-19T18:02:07.839Z,100366.81
2022-10-19T18:04:39.639Z,100371.28
2022-10-19T18:07:11.790Z,100377.56
2022-10-19T18:09:43.493Z,100381.50
2022-10-19T18:12:15.287Z,100374.88
2022-10-19T18:14:47.007Z,100380.63
2022-10-19T18:17:18.771Z,100381.88
2022-10-19T18:19:50.637Z,100388.72
2022-10-19T18:22:22.793Z,100383.22
2022-10-19T18:24:54.677Z,100382.16
2022-10-19T18:27:26.910Z,100383.03
2022-10-19T18:29:58.564Z,100387.94
2022-10-19T18:32:30.403Z,100381.88
2022-10-19T18:35:02.089Z,100384.28
2022-10-19T18:37:33.977Z,100384.72
2022-10-19T18:40:06.417Z,100382.81
2022-10-19T18:42:38.319Z,100384.38
2022-10-19T18:45:10.256Z,100382.16
2022-10-19T18:47:42.137Z,100377.59
2022-10-19T18:52:50.785Z,100386.03
2022-10-19T18:55:22.915Z,100380.34
2022-10-19T18:57:54.571Z,100369.50
2022-10-19T19:00:26.192Z,100379.38
2022-10-19T19:02:58.169Z,100386.78
2022-10-19T19:05:31.807Z,100376.78
2022-10-19T19:08:03.567Z,100375.53
2022-10-19T19:10:35.196Z,100370.97
2022-10-19T19:13:08.193Z,100373.34
2022-10-19T19:15:40.149Z,100375.44
2022-10-19T19:18:12.270Z,100373.19
2022-10-19T19:20:44.090Z,100379.03
2022-10-19T19:23:15.961Z,100371.41
2022-10-19T19:25:51.085Z,100370.97
2022-10-19T19:28:23.289Z,100374.03
2022-10-19T19:30:57.836Z,100364.59
2022-10-19T19:33:30.080Z,100372.94
2022-10-19T19:36:05.782Z,100369.72
2022-10-19T19:38:37.585Z,100365.84
2022-10-19T19:41:11.974Z,100369.75
2022-10-19T19:43:43.912Z,100366.69
2022-10-19T19:46:18.459Z,100375.03
2022-10-19T19:48:50.175Z,100379.06
2022-10-19T19:51:22.754Z,100367.38
2022-10-19T19:53:54.516Z,100370.28
2022-10-19T19:56:27.405Z,100366.97
2022-10-19T19:59:00.799Z,100388.19
2022-10-19T20:01:33.077Z,100386.81
2022-10-19T20:04:05.795Z,100387.06
2022-10-19T20:06:39.127Z,100384.56
2022-10-19T20:09:11.546Z,100384.84
2022-10-19T20:11:44.194Z,100386.78
2022-10-19T20:14:15.935Z,100389.69
2022-10-19T20:16:47.628Z,100376.91
2022-10-19T20:19:19.360Z,100381.63
2022-10-19T20:21:53.317Z,100387.28
2022-10-19T20:24:25.715Z,100387.72
2022-10-19T20:26:57.393Z,100386.16
2022-10-19T20:29:30.239Z,100389.09
2022-10-19T20:32:02.532Z,100385.88
2022-10-19T20:34:35.853Z,100393.78
2022-10-19T20:37:07.573Z,100391.53
2022-10-19T20:39:39.279Z,100394.72
2022-10-19T20:42:11.125Z,100394.16
2022-10-19T20:44:43.423Z,100388.28
2022-10-19T20:47:15.276Z,100384.97
2022-10-19T20:49:47.751Z,100390.63
2022-10-19T20:52:19.430Z,100383.41
2022-10-19T20:54:51.355Z,100392.41
2022-10-19T20:57:23.130Z,100388.50
2022-10-19T20:59:54.809Z,100393.03
2022-10-19T21:02:26.565Z,100383.63
2022-10-19T21:04:58.250Z,100386.38
2022-10-19T21:07:30.091Z,100388.56
2022-10-19T21:10:01.934Z,100386.91
2022-10-19T21:12:33.995Z,100395.06
2022-10-19T21:15:07.650Z,100391.00
2022-10-19T21:17:39.238Z,100387.69
2022-10-19T21:20:13.523Z,100395.72
2022-10-19T21:22:45.314Z,100393.31
2022-10-19T21:25:17.040Z,100393.59
2022-10-19T21:27:51.800Z,100393.84
2022-10-19T21:30:23.545Z,100394.00
2022-10-19T21:32:55.350Z,100394.13
2022-10-19T21:35:27.100Z,100388.13
2022-10-19T21:37:59.147Z,100389.94
2022-10-19T21:40:30.861Z,100387.56
2022-10-19T21:43:02.509Z,100388.88
2022-10-19T21:45:37.889Z,100385.66
2022-10-19T21:48:10.222Z,100394.66
2022-10-19T21:50:42.052Z,100388.56
2022-10-19T21:53:17.749Z,100390.34
2022-10-19T21:55:53.575Z,100387.72
2022-10-19T21:58:25.401Z,100389.78
2022-10-19T22:01:07.598Z,100393.50
2022-10-19T22:03:42.230Z,100387.66
2022-10-19T22:06:14.691Z,100387.91
2022-10-19T22:13:03.493Z,100386.28
2022-10-19T22:15:39.398Z,100389.31
2022-10-19T22:18:11.177Z,100386.78
2022-10-19T22:20:48.966Z,100381.91
2022-10-19T22:28:15.031Z,100368.03
2022-10-19T22:30:57.381Z,100369.72
2022-10-19T22:33:35.009Z,100363.50
2022-10-19T22:36:13.075Z,100376.78
2022-10-19T22:38:45.202Z,100365.81
2022-10-19T22:42:13.633Z,100372.84
2022-10-19T22:45:07.554Z,100369.66
2022-10-19T22:47:39.286Z,100367.25
2022-10-19T22:50:11.936Z,100368.09
2022-10-19T22:52:43.807Z,100363.00
